sensor_id;sensor_type;location;lat;lon;timestamp;P1;durP1;ratioP1;P2;durP2;ratioP2
53421;SDS011;39319;52.944;5.928;2022-09-09T00:03:59;10.43;;;6.80;;
53421;SDS011;39319;52.944;5.928;2022-09-09T00:06:34;9.38;;;6.53;;
53421;SDS011;39319;52.944;5.928;2022-09-09T00:09:19;10.23;;;6.65;;
53421;SDS011;39319;52.944;5.928;2022-09-09T00:11:51;10.85;;;6.20;;
53421;SDS011;39319;52.944;5.928;2022-09-09T00:14:34;11.77;;;6.68;;
53421;SDS011;39319;52.944;5.928;2022-09-09T00:19:56;10.10;;;6.72;;
53421;SDS011;39319;52.944;5.928;2022-09-09T00:22:28;11.67;;;6.60;;
53421;SDS011;39319;52.944;5.928;2022-09-09T00:24:58;8.35;;;5.80;;
53421;SDS011;39319;52.944;5.928;2022-09-09T00:30:26;11.02;;;6.38;;
53421;SDS011;39319;52.944;5.928;2022-09-09T00:32:59;10.60;;;6.28;;
53421;SDS011;39319;52.944;5.928;2022-09-09T00:38:19;11.20;;;7.03;;
53421;SDS011;39319;52.944;5.928;2022-09-09T00:44:00;9.93;;;6.15;;
53421;SDS011;39319;52.944;5.928;2022-09-09T00:46:48;9.57;;;6.38;;
53421;SDS011;39319;52.944;5.928;2022-09-09T00:55:16;11.20;;;6.80;;
53421;SDS011;39319;52.944;5.928;2022-09-09T00:57:51;11.38;;;6.25;;
53421;SDS011;39319;52.944;5.928;2022-09-09T01:02:56;11.85;;;7.20;;
53421;SDS011;39319;52.944;5.928;2022-09-09T01:07:57;11.70;;;7.43;;
53421;SDS011;39319;52.944;5.928;2022-09-09T01:13:25;12.57;;;7.55;;
53421;SDS011;39319;52.944;5.928;2022-09-09T01:16:03;11.40;;;7.78;;
53421;SDS011;39319;52.944;5.928;2022-09-09T01:18:39;12.47;;;7.57;;
53421;SDS011;39319;52.944;5.928;2022-09-09T01:24:03;12.07;;;7.50;;
53421;SDS011;39319;52.944;5.928;2022-09-09T01:26:35;12.38;;;7.78;;
53421;SDS011;39319;52.944;5.928;2022-09-09T01:29:04;13.75;;;7.55;;
53421;SDS011;39319;52.944;5.928;2022-09-09T01:34:14;11.55;;;7.28;;
53421;SDS011;39319;52.944;5.928;2022-09-09T01:39:29;11.35;;;7.18;;
53421;SDS011;39319;52.944;5.928;2022-09-09T01:42:02;10.93;;;7.20;;
53421;SDS011;39319;52.944;5.928;2022-09-09T01:44:30;12.52;;;7.15;;
53421;SDS011;39319;52.944;5.928;2022-09-09T01:46:56;9.90;;;7.28;;
53421;SDS011;39319;52.944;5.928;2022-09-09T01:49:22;12.13;;;7.50;;
53421;SDS011;39319;52.944;5.928;2022-09-09T01:51:55;11.88;;;7.53;;
53421;SDS011;39319;52.944;5.928;2022-09-09T01:54:22;11.27;;;7.18;;
53421;SDS011;39319;52.944;5.928;2022-09-09T01:59:39;13.45;;;7.90;;
53421;SDS011;39319;52.944;5.928;2022-09-09T02:10:49;13.73;;;7.60;;
53421;SDS011;39319;52.944;5.928;2022-09-09T02:13:20;11.60;;;7.70;;
53421;SDS011;39319;52.944;5.928;2022-09-09T02:18:35;10.30;;;6.85;;
53421;SDS011;39319;52.944;5.928;2022-09-09T02:21:01;12.60;;;7.45;;
53421;SDS011;39319;52.944;5.928;2022-09-09T02:23:28;10.38;;;7.13;;
53421;SDS011;39319;52.944;5.928;2022-09-09T02:25:55;11.00;;;7.00;;
53421;SDS011;39319;52.944;5.928;2022-09-09T02:28:26;12.40;;;7.38;;
53421;SDS011;39319;52.944;5.928;2022-09-09T02:30:55;10.80;;;7.25;;
53421;SDS011;39319;52.944;5.928;2022-09-09T02:33:24;9.65;;;7.00;;
53421;SDS011;39319;52.944;5.928;2022-09-09T02:35:54;10.52;;;7.05;;
53421;SDS011;39319;52.944;5.928;2022-09-09T02:38:28;12.65;;;7.20;;
53421;SDS011;39319;52.944;5.928;2022-09-09T02:40:58;12.10;;;7.50;;
53421;SDS011;39319;52.944;5.928;2022-09-09T02:43:24;12.85;;;7.80;;
53421;SDS011;39319;52.944;5.928;2022-09-09T02:45:57;10.95;;;7.97;;
53421;SDS011;39319;52.944;5.928;2022-09-09T02:48:36;11.27;;;7.45;;
53421;SDS011;39319;52.944;5.928;2022-09-09T02:54:07;12.98;;;7.88;;
53421;SDS011;39319;52.944;5.928;2022-09-09T02:56:43;13.05;;;7.97;;
53421;SDS011;39319;52.944;5.928;2022-09-09T02:59:15;13.23;;;7.83;;
53421;SDS011;39319;52.944;5.928;2022-09-09T03:01:41;10.23;;;7.68;;
53421;SDS011;39319;52.944;5.928;2022-09-09T03:04:07;11.57;;;7.30;;
53421;SDS011;39319;52.944;5.928;2022-09-09T03:06:32;14.83;;;7.43;;
53421;SDS011;39319;52.944;5.928;2022-09-09T03:08:58;12.50;;;7.30;;
53421;SDS011;39319;52.944;5.928;2022-09-09T03:11:26;11.30;;;6.68;;
53421;SDS011;39319;52.944;5.928;2022-09-09T03:13:53;11.60;;;7.00;;
53421;SDS011;39319;52.944;5.928;2022-09-09T03:16:21;10.43;;;6.70;;
53421;SDS011;39319;52.944;5.928;2022-09-09T03:18:49;12.33;;;6.50;;
53421;SDS011;39319;52.944;5.928;2022-09-09T03:21:15;9.70;;;5.88;;
53421;SDS011;39319;52.944;5.928;2022-09-09T03:23:41;9.10;;;5.40;;
53421;SDS011;39319;52.944;5.928;2022-09-09T03:26:07;10.23;;;5.50;;
53421;SDS011;39319;52.944;5.928;2022-09-09T03:28:33;9.50;;;5.00;;
53421;SDS011;39319;52.944;5.928;2022-09-09T03:31:01;11.23;;;4.75;;
53421;SDS011;39319;52.944;5.928;2022-09-09T03:33:28;10.20;;;4.88;;
53421;SDS011;39319;52.944;5.928;2022-09-09T03:35:54;9.25;;;4.43;;
53421;SDS011;39319;52.944;5.928;2022-09-09T03:38:22;9.07;;;4.10;;
53421;SDS011;39319;52.944;5.928;2022-09-09T03:40:52;9.73;;;4.15;;
53421;SDS011;39319;52.944;5.928;2022-09-09T03:43:22;10.43;;;4.05;;
53421;SDS011;39319;52.944;5.928;2022-09-09T03:45:50;8.10;;;4.03;;
53421;SDS011;39319;52.944;5.928;2022-09-09T03:48:16;8.65;;;4.28;;
53421;SDS011;39319;52.944;5.928;2022-09-09T03:50:46;8.48;;;3.83;;
53421;SDS011;39319;52.944;5.928;2022-09-09T03:53:16;7.43;;;3.80;;
53421;SDS011;39319;52.944;5.928;2022-09-09T03:55:54;9.88;;;4.18;;
53421;SDS011;39319;52.944;5.928;2022-09-09T03:58:22;9.97;;;3.60;;
53421;SDS011;39319;52.944;5.928;2022-09-09T04:00:53;8.07;;;3.40;;
53421;SDS011;39319;52.944;5.928;2022-09-09T04:03:22;7.97;;;3.90;;
53421;SDS011;39319;52.944;5.928;2022-09-09T04:05:50;8.77;;;3.70;;
53421;SDS011;39319;52.944;5.928;2022-09-09T04:08:16;8.30;;;4.10;;
53421;SDS011;39319;52.944;5.928;2022-09-09T04:10:44;9.05;;;3.90;;
53421;SDS011;39319;52.944;5.928;2022-09-09T04:13:14;9.02;;;4.00;;
53421;SDS011;39319;52.944;5.928;2022-09-09T04:15:43;9.02;;;4.13;;
53421;SDS011;39319;52.944;5.928;2022-09-09T04:18:10;8.93;;;4.07;;
53421;SDS011;39319;52.944;5.928;2022-09-09T04:20:36;8.48;;;4.03;;
53421;SDS011;39319;52.944;5.928;2022-09-09T04:23:03;9.93;;;4.72;;
53421;SDS011;39319;52.944;5.928;2022-09-09T04:25:29;9.40;;;4.45;;
53421;SDS011;39319;52.944;5.928;2022-09-09T04:27:55;8.20;;;4.55;;
53421;SDS011;39319;52.944;5.928;2022-09-09T04:30:23;9.07;;;5.47;;
53421;SDS011;39319;52.944;5.928;2022-09-09T04:32:50;10.57;;;5.25;;
53421;SDS011;39319;52.944;5.928;2022-09-09T04:35:15;10.60;;;5.23;;
53421;SDS011;39319;52.944;5.928;2022-09-09T04:37:41;10.57;;;5.47;;
53421;SDS011;39319;52.944;5.928;2022-09-09T04:40:07;9.05;;;5.10;;
53421;SDS011;39319;52.944;5.928;2022-09-09T04:42:38;9.33;;;5.37;;
53421;SDS011;39319;52.944;5.928;2022-09-09T04:45:04;8.73;;;5.00;;
53421;SDS011;39319;52.944;5.928;2022-09-09T04:47:32;10.50;;;5.50;;
53421;SDS011;39319;52.944;5.928;2022-09-09T04:49:58;10.43;;;5.50;;
53421;SDS011;39319;52.944;5.928;2022-09-09T04:52:24;9.65;;;5.50;;
53421;SDS011;39319;52.944;5.928;2022-09-09T04:54:49;11.27;;;6.00;;
53421;SDS011;39319;52.944;5.928;2022-09-09T04:57:15;11.35;;;5.75;;
53421;SDS011;39319;52.944;5.928;2022-09-09T04:59:42;9.80;;;5.67;;
53421;SDS011;39319;52.944;5.928;2022-09-09T05:02:09;9.87;;;5.50;;
53421;SDS011;39319;52.944;5.928;2022-09-09T05:04:35;8.35;;;5.32;;
53421;SDS011;39319;52.944;5.928;2022-09-09T05:07:01;11.27;;;5.43;;
53421;SDS011;39319;52.944;5.928;2022-09-09T05:09:27;8.30;;;5.93;;
53421;SDS011;39319;52.944;5.928;2022-09-09T05:11:52;11.20;;;6.13;;
53421;SDS011;39319;52.944;5.928;2022-09-09T05:14:18;10.90;;;7.00;;
53421;SDS011;39319;52.944;5.928;2022-09-09T05:16:44;11.20;;;6.97;;
53421;SDS011;39319;52.944;5.928;2022-09-09T05:19:10;11.93;;;7.43;;
53421;SDS011;39319;52.944;5.928;2022-09-09T05:21:36;11.32;;;7.55;;
53421;SDS011;39319;52.944;5.928;2022-09-09T05:24:02;11.13;;;7.65;;
53421;SDS011;39319;52.944;5.928;2022-09-09T05:26:28;11.73;;;8.90;;
53421;SDS011;39319;52.944;5.928;2022-09-09T05:28:54;15.25;;;9.10;;
53421;SDS011;39319;52.944;5.928;2022-09-09T05:31:20;11.90;;;8.43;;
53421;SDS011;39319;52.944;5.928;2022-09-09T05:33:46;12.40;;;8.50;;
53421;SDS011;39319;52.944;5.928;2022-09-09T05:36:18;13.43;;;8.82;;
53421;SDS011;39319;52.944;5.928;2022-09-09T05:38:45;13.20;;;8.90;;
53421;SDS011;39319;52.944;5.928;2022-09-09T05:41:11;14.65;;;9.35;;
53421;SDS011;39319;52.944;5.928;2022-09-09T05:43:40;14.23;;;9.27;;
53421;SDS011;39319;52.944;5.928;2022-09-09T05:46:10;15.15;;;9.52;;
53421;SDS011;39319;52.944;5.928;2022-09-09T05:48:38;14.45;;;9.88;;
53421;SDS011;39319;52.944;5.928;2022-09-09T05:51:07;14.70;;;10.65;;
53421;SDS011;39319;52.944;5.928;2022-09-09T05:53:41;18.55;;;10.60;;
53421;SDS011;39319;52.944;5.928;2022-09-09T05:56:08;14.77;;;10.90;;
53421;SDS011;39319;52.944;5.928;2022-09-09T05:58:36;15.95;;;9.88;;
53421;SDS011;39319;52.944;5.928;2022-09-09T06:01:10;17.55;;;10.65;;
53421;SDS011;39319;52.944;5.928;2022-09-09T06:03:39;13.65;;;10.20;;
53421;SDS011;39319;52.944;5.928;2022-09-09T06:06:10;14.53;;;10.50;;
53421;SDS011;39319;52.944;5.928;2022-09-09T06:08:38;14.60;;;10.13;;
53421;SDS011;39319;52.944;5.928;2022-09-09T06:11:07;14.07;;;10.60;;
53421;SDS011;39319;52.944;5.928;2022-09-09T06:13:38;13.75;;;10.30;;
53421;SDS011;39319;52.944;5.928;2022-09-09T06:16:13;15.13;;;10.90;;
53421;SDS011;39319;52.944;5.928;2022-09-09T06:18:40;15.88;;;10.48;;
53421;SDS011;39319;52.944;5.928;2022-09-09T06:21:08;14.48;;;10.48;;
53421;SDS011;39319;52.944;5.928;2022-09-09T06:23:39;14.05;;;10.38;;
53421;SDS011;39319;52.944;5.928;2022-09-09T06:26:06;14.65;;;10.65;;
53421;SDS011;39319;52.944;5.928;2022-09-09T06:28:35;16.23;;;10.77;;
53421;SDS011;39319;52.944;5.928;2022-09-09T06:31:02;13.75;;;9.95;;
53421;SDS011;39319;52.944;5.928;2022-09-09T06:33:48;15.77;;;9.93;;
53421;SDS011;39319;52.944;5.928;2022-09-09T06:36:16;15.75;;;10.60;;
53421;SDS011;39319;52.944;5.928;2022-09-09T06:38:46;14.35;;;9.82;;
53421;SDS011;39319;52.944;5.928;2022-09-09T06:41:13;14.68;;;10.02;;
53421;SDS011;39319;52.944;5.928;2022-09-09T06:43:41;14.32;;;9.85;;
53421;SDS011;39319;52.944;5.928;2022-09-09T06:48:43;14.43;;;9.07;;
53421;SDS011;39319;52.944;5.928;2022-09-09T06:51:11;14.15;;;9.27;;
53421;SDS011;39319;52.944;5.928;2022-09-09T06:53:43;12.02;;;9.00;;
53421;SDS011;39319;52.944;5.928;2022-09-09T06:58:36;12.87;;;9.90;;
53421;SDS011;39319;52.944;5.928;2022-09-09T07:01:12;14.60;;;9.75;;
53421;SDS011;39319;52.944;5.928;2022-09-09T07:03:40;14.55;;;10.05;;
53421;SDS011;39319;52.944;5.928;2022-09-09T07:06:08;13.20;;;9.48;;
53421;SDS011;39319;52.944;5.928;2022-09-09T07:08:39;14.45;;;9.40;;
53421;SDS011;39319;52.944;5.928;2022-09-09T07:11:07;14.88;;;9.30;;
53421;SDS011;39319;52.944;5.928;2022-09-09T07:13:34;14.67;;;9.87;;
53421;SDS011;39319;52.944;5.928;2022-09-09T07:16:10;13.05;;;9.13;;
53421;SDS011;39319;52.944;5.928;2022-09-09T07:18:37;14.48;;;9.70;;
53421;SDS011;39319;52.944;5.928;2022-09-09T07:21:04;13.25;;;9.57;;
53421;SDS011;39319;52.944;5.928;2022-09-09T07:23:32;14.30;;;9.15;;
53421;SDS011;39319;52.944;5.928;2022-09-09T07:25:58;14.48;;;9.20;;
53421;SDS011;39319;52.944;5.928;2022-09-09T07:28:24;13.07;;;9.40;;
53421;SDS011;39319;52.944;5.928;2022-09-09T07:30:58;13.55;;;9.43;;
53421;SDS011;39319;52.944;5.928;2022-09-09T07:33:28;14.98;;;9.32;;
53421;SDS011;39319;52.944;5.928;2022-09-09T07:36:08;14.95;;;9.88;;
53421;SDS011;39319;52.944;5.928;2022-09-09T07:38:41;13.80;;;9.45;;
53421;SDS011;39319;52.944;5.928;2022-09-09T07:41:10;14.93;;;9.90;;
53421;SDS011;39319;52.944;5.928;2022-09-09T07:43:40;14.13;;;9.40;;
53421;SDS011;39319;52.944;5.928;2022-09-09T07:46:09;14.20;;;9.75;;
53421;SDS011;39319;52.944;5.928;2022-09-09T07:48:35;13.30;;;9.70;;
53421;SDS011;39319;52.944;5.928;2022-09-09T07:51:12;17.55;;;9.68;;
53421;SDS011;39319;52.944;5.928;2022-09-09T07:53:43;12.48;;;8.65;;
53421;SDS011;39319;52.944;5.928;2022-09-09T07:56:10;14.80;;;8.90;;
53421;SDS011;39319;52.944;5.928;2022-09-09T07:58:42;16.08;;;8.40;;
53421;SDS011;39319;52.944;5.928;2022-09-09T08:01:15;14.07;;;8.38;;
53421;SDS011;39319;52.944;5.928;2022-09-09T08:03:43;13.18;;;7.72;;
53421;SDS011;39319;52.944;5.928;2022-09-09T08:06:10;13.32;;;7.13;;
53421;SDS011;39319;52.944;5.928;2022-09-09T08:08:37;13.52;;;6.68;;
53421;SDS011;39319;52.944;5.928;2022-09-09T08:11:13;14.80;;;6.10;;
53421;SDS011;39319;52.944;5.928;2022-09-09T08:13:40;18.80;;;6.85;;
53421;SDS011;39319;52.944;5.928;2022-09-09T08:16:08;14.05;;;6.63;;
53421;SDS011;39319;52.944;5.928;2022-09-09T08:18:36;17.77;;;6.93;;
53421;SDS011;39319;52.944;5.928;2022-09-09T08:21:10;12.60;;;6.40;;
53421;SDS011;39319;52.944;5.928;2022-09-09T08:23:40;14.65;;;6.20;;
53421;SDS011;39319;52.944;5.928;2022-09-09T08:26:09;16.08;;;6.15;;
53421;SDS011;39319;52.944;5.928;2022-09-09T08:28:36;13.88;;;6.05;;
53421;SDS011;39319;52.944;5.928;2022-09-09T08:31:37;12.15;;;5.95;;
53421;SDS011;39319;52.944;5.928;2022-09-09T08:33:56;12.47;;;5.70;;
53421;SDS011;39319;52.944;5.928;2022-09-09T08:36:25;14.85;;;6.30;;
53421;SDS011;39319;52.944;5.928;2022-09-09T08:38:55;13.57;;;6.30;;
53421;SDS011;39319;52.944;5.928;2022-09-09T08:47:06;11.50;;;5.50;;
53421;SDS011;39319;52.944;5.928;2022-09-09T08:52:48;13.63;;;6.28;;
53421;SDS011;39319;52.944;5.928;2022-09-09T08:57:48;14.18;;;5.32;;
53421;SDS011;39319;52.944;5.928;2022-09-09T09:00:17;12.98;;;5.72;;
53421;SDS011;39319;52.944;5.928;2022-09-09T09:02:48;12.20;;;5.15;;
53421;SDS011;39319;52.944;5.928;2022-09-09T09:05:59;13.48;;;5.35;;
53421;SDS011;39319;52.944;5.928;2022-09-09T09:08:22;14.35;;;5.47;;
53421;SDS011;39319;52.944;5.928;2022-09-09T09:10:53;14.93;;;5.47;;
53421;SDS011;39319;52.944;5.928;2022-09-09T09:18:51;11.27;;;4.90;;
53421;SDS011;39319;52.944;5.928;2022-09-09T09:21:52;13.10;;;4.65;;
53421;SDS011;39319;52.944;5.928;2022-09-09T09:25:17;12.27;;;3.93;;
53421;SDS011;39319;52.944;5.928;2022-09-09T09:27:18;14.93;;;4.53;;
53421;SDS011;39319;52.944;5.928;2022-09-09T09:30:20;11.23;;;3.67;;
53421;SDS011;39319;52.944;5.928;2022-09-09T09:32:58;14.02;;;4.13;;
53421;SDS011;39319;52.944;5.928;2022-09-09T09:35:27;9.95;;;3.67;;
53421;SDS011;39319;52.944;5.928;2022-09-09T09:37:53;11.37;;;2.97;;
53421;SDS011;39319;52.944;5.928;2022-09-09T09:40:20;14.40;;;3.35;;
53421;SDS011;39319;52.944;5.928;2022-09-09T09:45:26;12.40;;;2.85;;
53421;SDS011;39319;52.944;5.928;2022-09-09T09:48:12;12.02;;;2.85;;
53421;SDS011;39319;52.944;5.928;2022-09-09T09:50:58;9.20;;;2.45;;
53421;SDS011;39319;52.944;5.928;2022-09-09T09:53:30;11.40;;;2.47;;
53421;SDS011;39319;52.944;5.928;2022-09-09T09:56:07;11.18;;;2.78;;
53421;SDS011;39319;52.944;5.928;2022-09-09T10:01:26;11.48;;;2.90;;
53421;SDS011;39319;52.944;5.928;2022-09-09T10:03:55;10.30;;;3.08;;
53421;SDS011;39319;52.944;5.928;2022-09-09T10:06:31;10.95;;;2.40;;
53421;SDS011;39319;52.944;5.928;2022-09-09T10:09:03;13.40;;;2.63;;
53421;SDS011;39319;52.944;5.928;2022-09-09T10:11:57;9.80;;;2.50;;
53421;SDS011;39319;52.944;5.928;2022-09-09T10:14:41;11.35;;;2.63;;
53421;SDS011;39319;52.944;5.928;2022-09-09T10:35:26;9.55;;;2.38;;
53421;SDS011;39319;52.944;5.928;2022-09-09T10:46:07;11.93;;;2.83;;
53421;SDS011;39319;52.944;5.928;2022-09-09T10:56:35;12.05;;;2.75;;
53421;SDS011;39319;52.944;5.928;2022-09-09T10:59:14;10.10;;;2.40;;
53421;SDS011;39319;52.944;5.928;2022-09-09T11:01:50;9.00;;;2.13;;
53421;SDS011;39319;52.944;5.928;2022-09-09T11:16:50;13.30;;;2.87;;
53421;SDS011;39319;52.944;5.928;2022-09-09T11:25:26;11.25;;;2.60;;
53421;SDS011;39319;52.944;5.928;2022-09-09T11:31:40;10.32;;;2.30;;
53421;SDS011;39319;52.944;5.928;2022-09-09T11:41:01;10.50;;;2.40;;
53421;SDS011;39319;52.944;5.928;2022-09-09T11:46:07;11.38;;;2.80;;
53421;SDS011;39319;52.944;5.928;2022-09-09T11:48:35;9.80;;;2.40;;
53421;SDS011;39319;52.944;5.928;2022-09-09T11:53:53;12.57;;;2.67;;
53421;SDS011;39319;52.944;5.928;2022-09-09T12:05:10;11.48;;;2.90;;
53421;SDS011;39319;52.944;5.928;2022-09-09T12:07:41;12.40;;;2.50;;
53421;SDS011;39319;52.944;5.928;2022-09-09T12:14:02;11.55;;;2.83;;
53421;SDS011;39319;52.944;5.928;2022-09-09T12:16:32;10.48;;;2.53;;
53421;SDS011;39319;52.944;5.928;2022-09-09T12:19:13;12.32;;;2.70;;
53421;SDS011;39319;52.944;5.928;2022-09-09T12:33:35;8.13;;;1.52;;
53421;SDS011;39319;52.944;5.928;2022-09-09T12:36:02;10.33;;;2.43;;
53421;SDS011;39319;52.944;5.928;2022-09-09T12:38:37;10.27;;;2.30;;
53421;SDS011;39319;52.944;5.928;2022-09-09T12:41:05;9.57;;;2.20;;
53421;SDS011;39319;52.944;5.928;2022-09-09T12:43:31;10.93;;;2.20;;
53421;SDS011;39319;52.944;5.928;2022-09-09T12:46:03;10.38;;;2.28;;
53421;SDS011;39319;52.944;5.928;2022-09-09T12:48:48;10.47;;;2.20;;
53421;SDS011;39319;52.944;5.928;2022-09-09T12:51:18;8.30;;;1.80;;
53421;SDS011;39319;52.944;5.928;2022-09-09T12:53:55;7.57;;;1.70;;
53421;SDS011;39319;52.944;5.928;2022-09-09T12:56:32;8.95;;;2.00;;
53421;SDS011;39319;52.944;5.928;2022-09-09T12:58:58;7.53;;;1.80;;
53421;SDS011;39319;52.944;5.928;2022-09-09T13:01:32;8.63;;;1.93;;
53421;SDS011;39319;52.944;5.928;2022-09-09T13:03:58;9.10;;;2.22;;
53421;SDS011;39319;52.944;5.928;2022-09-09T13:06:25;7.82;;;1.92;;
53421;SDS011;39319;52.944;5.928;2022-09-09T13:08:53;8.45;;;1.77;;
53421;SDS011;39319;52.944;5.928;2022-09-09T13:11:27;9.48;;;2.00;;
53421;SDS011;39319;52.944;5.928;2022-09-09T13:13:56;7.95;;;1.80;;
53421;SDS011;39319;52.944;5.928;2022-09-09T13:16:27;9.27;;;2.53;;
53421;SDS011;39319;52.944;5.928;2022-09-09T13:19:07;8.85;;;2.40;;
53421;SDS011;39319;52.944;5.928;2022-09-09T13:21:38;10.93;;;2.40;;
53421;SDS011;39319;52.944;5.928;2022-09-09T13:24:27;11.38;;;2.67;;
53421;SDS011;39319;52.944;5.928;2022-09-09T13:26:56;10.75;;;2.40;;
53421;SDS011;39319;52.944;5.928;2022-09-09T13:29:27;9.00;;;2.28;;
53421;SDS011;39319;52.944;5.928;2022-09-09T13:31:53;10.52;;;2.03;;
53421;SDS011;39319;52.944;5.928;2022-09-09T13:34:32;8.13;;;1.77;;
53421;SDS011;39319;52.944;5.928;2022-09-09T13:37:00;6.63;;;1.65;;
53421;SDS011;39319;52.944;5.928;2022-09-09T13:39:28;7.22;;;1.60;;
53421;SDS011;39319;52.944;5.928;2022-09-09T13:41:57;6.28;;;1.52;;
53421;SDS011;39319;52.944;5.928;2022-09-09T13:44:24;7.32;;;1.60;;
53421;SDS011;39319;52.944;5.928;2022-09-09T13:49:45;7.57;;;1.85;;
53421;SDS011;39319;52.944;5.928;2022-09-09T13:52:18;8.17;;;1.73;;
53421;SDS011;39319;52.944;5.928;2022-09-09T13:54:48;8.63;;;1.63;;
53421;SDS011;39319;52.944;5.928;2022-09-09T13:57:18;5.78;;;1.40;;
53421;SDS011;39319;52.944;5.928;2022-09-09T13:59:46;6.73;;;1.50;;
53421;SDS011;39319;52.944;5.928;2022-09-09T14:02:13;9.40;;;1.90;;
53421;SDS011;39319;52.944;5.928;2022-09-09T14:04:41;6.85;;;1.50;;
53421;SDS011;39319;52.944;5.928;2022-09-09T14:07:17;7.57;;;1.73;;
53421;SDS011;39319;52.944;5.928;2022-09-09T14:09:43;7.97;;;1.70;;
53421;SDS011;39319;52.944;5.928;2022-09-09T14:12:14;8.20;;;1.58;;
53421;SDS011;39319;52.944;5.928;2022-09-09T14:14:41;8.03;;;1.63;;
53421;SDS011;39319;52.944;5.928;2022-09-09T14:17:08;7.75;;;1.60;;
53421;SDS011;39319;52.944;5.928;2022-09-09T14:19:34;7.82;;;1.63;;
53421;SDS011;39319;52.944;5.928;2022-09-09T14:22:00;7.57;;;1.58;;
53421;SDS011;39319;52.944;5.928;2022-09-09T14:24:26;7.30;;;1.48;;
53421;SDS011;39319;52.944;5.928;2022-09-09T14:26:53;6.70;;;1.48;;
53421;SDS011;39319;52.944;5.928;2022-09-09T14:29:18;9.20;;;1.70;;
53421;SDS011;39319;52.944;5.928;2022-09-09T14:31:44;8.67;;;1.70;;
53421;SDS011;39319;52.944;5.928;2022-09-09T14:34:10;7.55;;;1.65;;
53421;SDS011;39319;52.944;5.928;2022-09-09T14:36:37;8.18;;;1.80;;
53421;SDS011;39319;52.944;5.928;2022-09-09T14:39:03;5.67;;;1.40;;
53421;SDS011;39319;52.944;5.928;2022-09-09T14:41:29;6.18;;;1.48;;
53421;SDS011;39319;52.944;5.928;2022-09-09T14:43:55;6.80;;;1.60;;
53421;SDS011;39319;52.944;5.928;2022-09-09T14:46:24;5.00;;;1.75;;
53421;SDS011;39319;52.944;5.928;2022-09-09T14:48:51;6.78;;;1.92;;
53421;SDS011;39319;52.944;5.928;2022-09-09T14:51:21;7.90;;;1.90;;
53421;SDS011;39319;52.944;5.928;2022-09-09T14:53:51;6.47;;;1.90;;
53421;SDS011;39319;52.944;5.928;2022-09-09T14:56:21;6.45;;;1.73;;
53421;SDS011;39319;52.944;5.928;2022-09-09T14:58:52;5.35;;;1.83;;
53421;SDS011;39319;52.944;5.928;2022-09-09T15:01:22;7.50;;;1.85;;
53421;SDS011;39319;52.944;5.928;2022-09-09T15:03:52;6.88;;;2.35;;
53421;SDS011;39319;52.944;5.928;2022-09-09T15:06:26;6.25;;;1.83;;
53421;SDS011;39319;52.944;5.928;2022-09-09T15:08:55;5.90;;;1.63;;
53421;SDS011;39319;52.944;5.928;2022-09-09T15:11:23;6.28;;;2.03;;
53421;SDS011;39319;52.944;5.928;2022-09-09T15:13:51;7.47;;;2.20;;
53421;SDS011;39319;52.944;5.928;2022-09-09T15:16:20;6.28;;;2.42;;
53421;SDS011;39319;52.944;5.928;2022-09-09T15:18:50;7.85;;;2.53;;
53421;SDS011;39319;52.944;5.928;2022-09-09T15:21:20;9.55;;;2.28;;
53421;SDS011;39319;52.944;5.928;2022-09-09T15:23:49;8.52;;;2.80;;
53421;SDS011;39319;52.944;5.928;2022-09-09T15:26:15;7.28;;;2.45;;
53421;SDS011;39319;52.944;5.928;2022-09-09T15:28:42;8.07;;;2.75;;
53421;SDS011;39319;52.944;5.928;2022-09-09T15:31:13;7.73;;;2.33;;
53421;SDS011;39319;52.944;5.928;2022-09-09T15:33:50;9.20;;;2.63;;
53421;SDS011;39319;52.944;5.928;2022-09-09T15:36:18;10.02;;;2.80;;
53421;SDS011;39319;52.944;5.928;2022-09-09T15:38:48;9.93;;;2.80;;
53421;SDS011;39319;52.944;5.928;2022-09-09T15:41:15;8.98;;;2.53;;
53421;SDS011;39319;52.944;5.928;2022-09-09T15:43:43;8.23;;;3.05;;
53421;SDS011;39319;52.944;5.928;2022-09-09T15:49:25;7.13;;;2.47;;
53421;SDS011;39319;52.944;5.928;2022-09-09T15:51:52;8.48;;;2.90;;
53421;SDS011;39319;52.944;5.928;2022-09-09T15:54:19;11.00;;;3.10;;
53421;SDS011;39319;52.944;5.928;2022-09-09T15:56:47;8.68;;;2.90;;
53421;SDS011;39319;52.944;5.928;2022-09-09T15:59:16;7.63;;;2.75;;
53421;SDS011;39319;52.944;5.928;2022-09-09T16:01:43;7.60;;;2.20;;
53421;SDS011;39319;52.944;5.928;2022-09-09T16:04:10;10.43;;;3.30;;
53421;SDS011;39319;52.944;5.928;2022-09-09T16:06:35;8.60;;;2.90;;
53421;SDS011;39319;52.944;5.928;2022-09-09T16:09:04;7.05;;;2.38;;
53421;SDS011;39319;52.944;5.928;2022-09-09T16:11:32;8.23;;;3.10;;
53421;SDS011;39319;52.944;5.928;2022-09-09T16:14:01;9.85;;;3.00;;
53421;SDS011;39319;52.944;5.928;2022-09-09T16:16:29;8.80;;;2.90;;
53421;SDS011;39319;52.944;5.928;2022-09-09T16:18:59;7.72;;;2.88;;
53421;SDS011;39319;52.944;5.928;2022-09-09T16:21:29;7.60;;;2.92;;
53421;SDS011;39319;52.944;5.928;2022-09-09T16:24:00;10.35;;;2.70;;
53421;SDS011;39319;52.944;5.928;2022-09-09T16:26:31;8.55;;;2.92;;
53421;SDS011;39319;52.944;5.928;2022-09-09T16:28:59;7.93;;;2.67;;
53421;SDS011;39319;52.944;5.928;2022-09-09T16:31:27;8.82;;;2.53;;
53421;SDS011;39319;52.944;5.928;2022-09-09T16:33:53;8.33;;;2.80;;
53421;SDS011;39319;52.944;5.928;2022-09-09T16:36:20;8.27;;;2.70;;
53421;SDS011;39319;52.944;5.928;2022-09-09T16:38:52;12.43;;;2.97;;
53421;SDS011;39319;52.944;5.928;2022-09-09T16:41:20;8.40;;;2.55;;
53421;SDS011;39319;52.944;5.928;2022-09-09T16:43:45;7.78;;;2.72;;
53421;SDS011;39319;52.944;5.928;2022-09-09T16:46:18;8.32;;;2.70;;
53421;SDS011;39319;52.944;5.928;2022-09-09T16:48:45;8.98;;;2.60;;
53421;SDS011;39319;52.944;5.928;2022-09-09T16:51:19;8.80;;;2.90;;
53421;SDS011;39319;52.944;5.928;2022-09-09T16:53:48;9.27;;;2.90;;
53421;SDS011;39319;52.944;5.928;2022-09-09T16:56:18;7.95;;;2.60;;
53421;SDS011;39319;52.944;5.928;2022-09-09T16:58:50;6.88;;;2.45;;
53421;SDS011;39319;52.944;5.928;2022-09-09T17:01:28;8.43;;;3.00;;
53421;SDS011;39319;52.944;5.928;2022-09-09T17:03:59;8.95;;;2.88;;
53421;SDS011;39319;52.944;5.928;2022-09-09T17:06:27;7.03;;;2.55;;
53421;SDS011;39319;52.944;5.928;2022-09-09T17:08:55;10.48;;;2.72;;
53421;SDS011;39319;52.944;5.928;2022-09-09T17:11:25;9.02;;;2.90;;
53421;SDS011;39319;52.944;5.928;2022-09-09T17:13:52;8.93;;;2.63;;
53421;SDS011;39319;52.944;5.928;2022-09-09T17:16:20;8.20;;;2.75;;
53421;SDS011;39319;52.944;5.928;2022-09-09T17:18:47;8.07;;;2.53;;
53421;SDS011;39319;52.944;5.928;2022-09-09T17:21:15;6.55;;;2.20;;
53421;SDS011;39319;52.944;5.928;2022-09-09T17:23:43;7.40;;;2.15;;
53421;SDS011;39319;52.944;5.928;2022-09-09T17:26:10;8.15;;;2.35;;
53421;SDS011;39319;52.944;5.928;2022-09-09T17:28:38;10.23;;;2.60;;
53421;SDS011;39319;52.944;5.928;2022-09-09T17:31:08;7.78;;;2.20;;
53421;SDS011;39319;52.944;5.928;2022-09-09T17:33:36;6.22;;;1.80;;
53421;SDS011;39319;52.944;5.928;2022-09-09T17:36:08;7.20;;;2.20;;
53421;SDS011;39319;52.944;5.928;2022-09-09T17:38:36;7.95;;;2.20;;
53421;SDS011;39319;52.944;5.928;2022-09-09T17:41:07;8.45;;;2.20;;
53421;SDS011;39319;52.944;5.928;2022-09-09T17:43:41;6.93;;;2.20;;
53421;SDS011;39319;52.944;5.928;2022-09-09T17:46:12;7.53;;;2.20;;
53421;SDS011;39319;52.944;5.928;2022-09-09T17:48:38;10.70;;;2.45;;
53421;SDS011;39319;52.944;5.928;2022-09-09T17:51:05;7.32;;;2.10;;
53421;SDS011;39319;52.944;5.928;2022-09-09T17:53:37;8.07;;;2.03;;
53421;SDS011;39319;52.944;5.928;2022-09-09T17:56:11;7.47;;;2.40;;
53421;SDS011;39319;52.944;5.928;2022-09-09T17:58:42;9.55;;;2.35;;